Time;durP1;ratioP1;P1;durP2;ratioP2;P2;SDS_P1;SDS_P2;PMS_P1;PMS_P2;Temp;Humidity;BMP_temperature;BMP_pressure;BME280_temperature;BME280_humidity;BME280_pressure;Samples;Min_cycle;Max_cycle;Signal;HPM_P1;HPM_P2
2021/01/31 00:00:32;;;;;;;20.23;10.60;;;-2.00;99.90;;;;;;4968996;28;20031;-77
2021/01/31 00:02:59;;;;;;;21.40;10.52;;;-2.00;99.90;;;;;;4966244;28;20102;-76
2021/01/31 00:05:26;;;;;;;20.92;10.75;;;-2.10;99.90;;;;;;4963784;28;20019;-76
2021/01/31 00:07:52;;;;;;;20.90;10.57;;;-2.00;99.90;;;;;;4968997;28;20023;-75
2021/01/31 00:10:20;;;;;;;19.52;10.88;;;-2.10;99.90;;;;;;4960756;28;20027;-76
2021/01/31 00:12:47;;;;;;;24.30;9.77;;;-2.20;99.90;;;;;;4955442;28;20055;-75
2021/01/31 00:15:16;;;;;;;23.33;10.55;;;-2.30;99.90;;;;;;4952184;28;20040;-75
2021/01/31 00:17:42;;;;;;;21.85;10.68;;;-2.20;99.90;;;;;;4963672;28;20490;-75
2021/01/31 00:20:08;;;;;;;18.80;9.68;;;-2.20;99.90;;;;;;4965385;28;20031;-76
2021/01/31 00:22:33;;;;;;;19.13;10.15;;;-2.20;99.90;;;;;;4964017;28;20045;-76
2021/01/31 00:24:59;;;;;;;19.73;10.48;;;-2.20;99.90;;;;;;4959230;28;20051;-75
2021/01/31 00:27:25;;;;;;;20.23;10.80;;;-2.30;99.90;;;;;;4962349;28;20057;-76
2021/01/31 00:29:51;;;;;;;19.67;10.43;;;-2.30;99.90;;;;;;4957051;28;20441;-76
2021/01/31 00:32:25;;;;;;;24.63;11.15;;;-2.30;99.90;;;;;;4968194;28;20108;-76
2021/01/31 00:34:52;;;;;;;20.00;10.40;;;-2.30;99.90;;;;;;4977845;28;20030;-76
2021/01/31 00:37:19;;;;;;;22.35;10.20;;;-2.30;99.90;;;;;;4960543;28;20038;-75
2021/01/31 00:39:49;;;;;;;19.90;11.05;;;-2.40;99.90;;;;;;4963659;28;20039;-76
2021/01/31 00:42:18;;;;;;;20.60;10.73;;;-2.40;99.90;;;;;;4963945;28;20038;-76
2021/01/31 00:44:52;;;;;;;21.65;11.35;;;-2.40;99.90;;;;;;4959867;28;20078;-76
2021/01/31 00:47:19;;;;;;;27.25;11.52;;;-2.40;99.90;;;;;;4962979;28;20031;-76
2021/01/31 00:49:46;;;;;;;22.25;11.25;;;-2.50;99.90;;;;;;4965135;28;20577;-75
2021/01/31 00:52:12;;;;;;;21.60;10.18;;;-2.50;99.90;;;;;;4959549;28;20097;-76
2021/01/31 00:54:38;;;;;;;18.63;10.55;;;-2.50;99.90;;;;;;4960419;28;20441;-76
2021/01/31 00:57:04;;;;;;;20.80;10.55;;;-2.40;99.90;;;;;;4967042;28;20042;-75
2021/01/31 00:59:30;;;;;;;25.52;10.77;;;-2.50;99.90;;;;;;4969787;28;20043;-76
2021/01/31 01:01:55;;;;;;;20.52;11.05;;;-2.50;99.90;;;;;;4967236;28;20106;-76
2021/01/31 01:04:21;;;;;;;23.30;11.10;;;-2.50;99.90;;;;;;4965323;28;20029;-76
2021/01/31 01:06:46;;;;;;;21.98;10.63;;;-2.60;99.90;;;;;;4965720;28;20551;-76
2021/01/31 01:09:13;;;;;;;25.20;11.00;;;-2.70;99.90;;;;;;4967987;28;20030;-76
2021/01/31 01:11:45;;;;;;;23.20;11.25;;;-2.70;99.90;;;;;;4966836;28;20422;-76
2021/01/31 01:14:10;;;;;;;28.50;11.48;;;-2.70;99.90;;;;;;4967540;28;20030;-76
2021/01/31 01:16:36;;;;;;;22.35;10.75;;;-2.70;99.90;;;;;;4962946;28;20062;-76
2021/01/31 01:19:03;;;;;;;23.23;11.23;;;-2.80;99.90;;;;;;4968417;28;20136;-76
2021/01/31 01:21:29;;;;;;;23.35;10.70;;;-2.90;99.90;;;;;;4961848;28;20032;-76
2021/01/31 01:23:55;;;;;;;25.48;11.40;;;-2.90;99.90;;;;;;4964564;28;20049;-76
2021/01/31 01:26:20;;;;;;;25.73;12.25;;;-2.90;99.90;;;;;;4973073;28;20058;-76
2021/01/31 01:28:46;;;;;;;21.95;10.43;;;-3.00;99.90;;;;;;4965798;28;20018;-76
2021/01/31 01:31:11;;;;;;;21.98;10.90;;;-3.00;99.90;;;;;;4962406;28;20109;-75
2021/01/31 01:33:37;;;;;;;19.10;10.73;;;-2.90;99.90;;;;;;4967503;28;20035;-76
2021/01/31 01:36:03;;;;;;;25.92;11.07;;;-2.90;99.90;;;;;;4983382;28;20023;-76
2021/01/31 01:38:29;;;;;;;22.67;11.55;;;-3.00;99.90;;;;;;4967406;28;20102;-75
2021/01/31 01:40:55;;;;;;;22.95;9.95;;;-3.00;99.90;;;;;;4956509;28;20057;-75
2021/01/31 01:43:22;;;;;;;24.10;10.95;;;-3.00;99.90;;;;;;4967679;28;20086;-75
2021/01/31 01:46:18;;;;;;;25.00;10.45;;;-3.00;99.90;;;;;;4964859;28;20035;-75
2021/01/31 01:48:45;;;;;;;21.15;10.45;;;-3.00;99.90;;;;;;4963552;28;20037;-76
2021/01/31 01:51:11;;;;;;;23.30;11.38;;;-3.00;99.90;;;;;;4951515;28;20098;-75
2021/01/31 01:53:38;;;;;;;19.88;10.10;;;-3.10;99.90;;;;;;4966188;28;20174;-75
2021/01/31 01:56:27;;;;;;;19.98;10.43;;;-3.10;99.90;;;;;;4952286;28;20121;-76
2021/01/31 01:58:56;;;;;;;21.48;10.52;;;-3.10;99.90;;;;;;4960028;28;20039;-76
2021/01/31 02:01:23;;;;;;;21.63;10.82;;;-3.10;99.90;;;;;;4966144;28;20099;-76
2021/01/31 02:03:52;;;;;;;24.20;11.07;;;-3.30;99.90;;;;;;4963374;28;20031;-77
2021/01/31 02:06:22;;;;;;;24.27;11.05;;;-3.30;99.90;;;;;;4952619;28;20502;-76
2021/01/31 02:08:49;;;;;;;22.45;9.85;;;-3.40;99.90;;;;;;4963452;28;20035;-76
2021/01/31 02:11:16;;;;;;;23.15;10.35;;;-3.40;99.90;;;;;;4970600;28;20035;-75
2021/01/31 02:13:45;;;;;;;22.42;10.57;;;-3.40;99.90;;;;;;4963513;28;20035;-75
2021/01/31 02:16:34;;;;;;;21.65;10.75;;;-3.30;99.90;;;;;;4967934;28;20077;-76
2021/01/31 02:19:25;;;;;;;24.02;10.63;;;-3.40;99.90;;;;;;4967530;28;20052;-75
2021/01/31 02:22:09;;;;;;;23.27;9.85;;;-3.30;99.90;;;;;;4976495;28;20023;-75
2021/01/31 02:25:11;;;;;;;21.92;10.23;;;-3.40;99.90;;;;;;4968816;28;20047;-75
2021/01/31 02:28:22;;;;;;;25.85;10.68;;;-3.50;99.90;;;;;;4971468;28;20030;-75
2021/01/31 02:31:02;;;;;;;23.65;10.90;;;-3.50;99.90;;;;;;4972713;28;20026;-76
2021/01/31 02:33:46;;;;;;;20.90;11.05;;;-3.40;99.90;;;;;;4975851;28;20529;-76
2021/01/31 02:36:36;;;;;;;22.15;11.70;;;-3.50;99.90;;;;;;4971891;28;20097;-75
2021/01/31 02:39:19;;;;;;;24.08;11.60;;;-3.60;99.90;;;;;;4975720;28;20505;-76
2021/01/31 02:41:54;;;;;;;27.00;11.40;;;-3.60;99.90;;;;;;4971109;28;20043;-76
2021/01/31 02:44:23;;;;;;;29.85;12.32;;;-3.60;99.90;;;;;;4965513;28;20027;-75
2021/01/31 02:46:54;;;;;;;32.03;12.68;;;-3.60;99.90;;;;;;4968315;28;20389;-76
2021/01/31 02:49:33;;;;;;;36.28;14.82;;;-3.70;99.90;;;;;;4966418;28;20094;-76
2021/01/31 02:52:10;;;;;;;34.90;14.68;;;-3.60;99.90;;;;;;4973025;28;20031;-76
2021/01/31 02:54:54;;;;;;;34.05;15.23;;;-3.60;99.90;;;;;;4976079;28;20046;-76
2021/01/31 02:57:34;;;;;;;30.95;14.75;;;-3.60;99.90;;;;;;4972808;28;20493;-76
2021/01/31 03:00:25;;;;;;;32.88;13.40;;;-3.60;99.90;;;;;;4969005;28;20043;-76
2021/01/31 03:02:55;;;;;;;28.65;13.98;;;-3.70;99.90;;;;;;4970797;28;20043;-76
2021/01/31 03:05:26;;;;;;;35.60;15.25;;;-3.70;99.90;;;;;;4965234;28;20043;-75
2021/01/31 03:08:11;;;;;;;29.98;13.77;;;-3.70;99.90;;;;;;4965571;28;20390;-76
2021/01/31 03:10:51;;;;;;;31.73;14.27;;;-3.80;99.90;;;;;;4964095;28;20426;-76
2021/01/31 03:13:32;;;;;;;31.40;14.47;;;-3.80;99.90;;;;;;4973642;28;20027;-76
2021/01/31 03:16:06;;;;;;;28.63;14.10;;;-3.80;99.90;;;;;;4963155;28;20055;-76
2021/01/31 03:18:57;;;;;;;27.95;14.20;;;-3.80;99.90;;;;;;4971120;28;20038;-76
2021/01/31 03:21:27;;;;;;;26.85;12.55;;;-3.80;99.90;;;;;;4968304;28;20046;-76
2021/01/31 03:24:08;;;;;;;33.47;13.00;;;-3.80;99.90;;;;;;4968205;28;20058;-75
2021/01/31 03:26:41;;;;;;;24.40;11.85;;;-3.80;99.90;;;;;;4958082;28;20039;-76
2021/01/31 03:29:07;;;;;;;25.40;12.20;;;-3.70;99.90;;;;;;4971727;28;20041;-75
2021/01/31 03:31:40;;;;;;;27.35;11.70;;;-3.60;99.90;;;;;;4969498;28;20027;-76
2021/01/31 03:34:10;;;;;;;24.52;10.57;;;-3.80;99.90;;;;;;4972772;28;20031;-76
2021/01/31 03:36:57;;;;;;;21.88;10.63;;;-3.80;99.90;;;;;;4965014;28;20042;-76
2021/01/31 03:39:25;;;;;;;23.05;11.07;;;-3.70;99.90;;;;;;4966303;28;20035;-76
2021/01/31 03:41:50;;;;;;;22.27;10.40;;;-3.80;99.90;;;;;;4970477;28;20023;-76
2021/01/31 03:44:16;;;;;;;23.70;9.65;;;-3.70;99.90;;;;;;4967424;28;20446;-75
2021/01/31 03:47:01;;;;;;;20.10;9.93;;;-3.50;99.90;;;;;;4964196;28;20027;-76
2021/01/31 03:49:51;;;;;;;17.75;9.23;;;-3.30;99.90;;;;;;4962755;28;20036;-75
2021/01/31 03:52:18;;;;;;;21.45;9.95;;;-3.40;99.90;;;;;;4958799;28;20086;-76
2021/01/31 03:54:43;;;;;;;21.17;9.68;;;-3.20;99.90;;;;;;4959124;28;20038;-75
2021/01/31 03:57:15;;;;;;;20.48;9.65;;;-3.20;99.90;;;;;;4963040;28;20042;-76
2021/01/31 03:59:47;;;;;;;19.30;9.60;;;-3.20;99.90;;;;;;4970842;28;20030;-75
2021/01/31 04:02:14;;;;;;;21.25;9.77;;;-3.30;99.90;;;;;;4965772;28;20118;-75
2021/01/31 04:04:46;;;;;;;21.75;9.13;;;-3.40;99.90;;;;;;4971745;28;20030;-76
2021/01/31 04:07:18;;;;;;;17.35;8.88;;;-3.40;99.90;;;;;;4968614;28;20433;-76
2021/01/31 04:09:45;;;;;;;17.08;8.90;;;-3.40;99.90;;;;;;4956836;28;20027;-76
2021/01/31 04:12:16;;;;;;;18.85;9.13;;;-3.30;99.90;;;;;;4964392;28;20105;-76
2021/01/31 04:15:07;;;;;;;16.70;8.20;;;-3.30;99.90;;;;;;4956914;28;20098;-76
2021/01/31 04:17:32;;;;;;;20.73;9.43;;;-3.40;99.90;;;;;;4961779;28;20045;-76
2021/01/31 04:19:58;;;;;;;16.88;7.95;;;-3.50;99.90;;;;;;4953734;28;20036;-76
2021/01/31 04:22:23;;;;;;;21.05;8.95;;;-3.50;99.90;;;;;;4969218;28;20027;-76
2021/01/31 04:24:48;;;;;;;20.75;8.68;;;-3.60;99.90;;;;;;4968704;28;20042;-76
2021/01/31 04:27:14;;;;;;;17.05;8.15;;;-3.60;99.90;;;;;;4966383;28;20085;-76
2021/01/31 04:29:40;;;;;;;15.25;8.23;;;-3.60;99.90;;;;;;4956286;28;20550;-75
2021/01/31 04:32:05;;;;;;;18.42;8.50;;;-3.60;99.90;;;;;;4969992;28;20184;-76
2021/01/31 04:34:31;;;;;;;17.05;8.32;;;-3.60;99.90;;;;;;4971061;28;20501;-76
2021/01/31 04:36:56;;;;;;;17.85;8.15;;;-3.70;99.90;;;;;;4963841;28;20034;-76
2021/01/31 04:39:22;;;;;;;16.00;7.57;;;-3.60;99.90;;;;;;4963714;28;20109;-76
2021/01/31 04:41:49;;;;;;;15.05;7.45;;;-3.70;99.90;;;;;;4969094;28;20542;-76
2021/01/31 04:44:17;;;;;;;14.50;7.45;;;-3.70;99.90;;;;;;4960149;28;20030;-76
2021/01/31 04:46:44;;;;;;;15.40;7.85;;;-3.70;99.90;;;;;;4958977;28;20078;-76
2021/01/31 04:49:19;;;;;;;15.98;7.82;;;-3.80;99.90;;;;;;4960472;28;20027;-76
2021/01/31 04:52:27;;;;;;;15.05;7.35;;;-3.70;99.90;;;;;;4969663;28;20043;-75
2021/01/31 04:55:00;;;;;;;17.45;7.88;;;-3.80;99.90;;;;;;4960525;28;20031;-76
2021/01/31 04:57:41;;;;;;;16.15;7.47;;;-3.90;99.90;;;;;;4965063;28;20019;-76
2021/01/31 05:00:17;;;;;;;13.32;6.57;;;-3.90;99.90;;;;;;4969088;28;20030;-75
2021/01/31 05:02:47;;;;;;;14.52;7.60;;;-3.90;99.90;;;;;;4965502;28;20105;-76
2021/01/31 05:05:18;;;;;;;12.80;6.78;;;-3.80;99.90;;;;;;4965023;28;20150;-76
2021/01/31 05:07:52;;;;;;;15.07;6.93;;;-3.80;99.90;;;;;;4963975;28;20055;-76
2021/01/31 05:10:18;;;;;;;11.68;6.88;;;-3.90;99.90;;;;;;4960377;28;20023;-76
2021/01/31 05:13:04;;;;;;;13.48;7.10;;;-3.80;99.90;;;;;;4956984;28;20035;-76
2021/01/31 05:15:49;;;;;;;12.38;6.35;;;-3.80;99.90;;;;;;4955626;28;20039;-76
2021/01/31 05:18:17;;;;;;;16.55;7.03;;;-3.90;99.90;;;;;;4957553;28;20026;-76
2021/01/31 05:20:48;;;;;;;14.02;6.90;;;-3.90;99.90;;;;;;4965935;28;20751;-76
2021/01/31 05:23:14;;;;;;;19.88;7.15;;;-3.90;99.90;;;;;;4952619;28;20155;-76
2021/01/31 05:25:40;;;;;;;15.35;7.38;;;-3.90;99.90;;;;;;4962989;28;20097;-76
2021/01/31 05:28:07;;;;;;;16.17;6.97;;;-3.90;99.90;;;;;;4965818;28;20459;-76
2021/01/31 05:30:33;;;;;;;12.75;6.45;;;-3.90;99.90;;;;;;4969190;28;20030;-76
2021/01/31 05:33:02;;;;;;;14.68;6.68;;;-3.90;99.90;;;;;;4963781;28;20062;-75
2021/01/31 05:35:29;;;;;;;15.25;6.90;;;-3.90;99.90;;;;;;4982035;28;20058;-76
2021/01/31 05:37:54;;;;;;;14.57;6.90;;;-4.00;99.90;;;;;;4955562;28;20039;-76
2021/01/31 05:40:33;;;;;;;14.70;6.40;;;-4.10;99.90;;;;;;4967599;28;20045;-76
2021/01/31 05:43:00;;;;;;;14.05;6.53;;;-4.00;99.90;;;;;;4968973;28;20030;-76
2021/01/31 05:45:31;;;;;;;13.43;6.38;;;-4.00;99.90;;;;;;4966597;28;20026;-76
2021/01/31 05:47:58;;;;;;;13.20;6.47;;;-4.00;99.90;;;;;;4966781;28;20034;-76
2021/01/31 05:50:34;;;;;;;13.80;6.55;;;-4.00;99.90;;;;;;4966207;28;20031;-75
2021/01/31 05:53:22;;;;;;;14.90;6.70;;;-4.00;99.90;;;;;;4951164;28;20034;-75
2021/01/31 05:55:47;;;;;;;12.93;6.00;;;-4.10;99.90;;;;;;4964355;28;20058;-75
2021/01/31 05:58:22;;;;;;;15.20;6.45;;;-4.10;99.90;;;;;;4968757;28;20023;-75
2021/01/31 06:01:05;;;;;;;14.65;6.63;;;-4.20;99.90;;;;;;4962094;28;20226;-76
2021/01/31 06:03:30;;;;;;;15.02;6.57;;;-4.10;99.90;;;;;;4967055;28;20023;-76
2021/01/31 06:06:15;;;;;;;14.00;6.78;;;-4.20;99.90;;;;;;4975814;28;20037;-75
2021/01/31 06:08:44;;;;;;;10.27;6.25;;;-4.20;99.90;;;;;;4955796;28;20086;-76
2021/01/31 06:11:24;;;;;;;16.77;6.93;;;-4.20;99.90;;;;;;4969694;28;20057;-76
2021/01/31 06:14:02;;;;;;;12.30;6.40;;;-4.10;99.90;;;;;;4963059;28;20027;-76
2021/01/31 06:16:28;;;;;;;12.23;6.15;;;-4.20;99.90;;;;;;4960432;28;20037;-76
2021/01/31 06:19:21;;;;;;;15.63;6.97;;;-4.20;99.90;;;;;;4950974;28;20035;-76
2021/01/31 06:21:47;;;;;;;12.38;6.40;;;-4.20;99.90;;;;;;4967056;28;20038;-76
2021/01/31 06:24:38;;;;;;;14.00;6.43;;;-4.20;99.90;;;;;;4969326;28;20055;-75
2021/01/31 06:27:05;;;;;;;14.25;6.35;;;-4.20;99.90;;;;;;4951951;28;20028;-76
2021/01/31 06:29:46;;;;;;;14.82;6.78;;;-4.10;99.90;;;;;;4950819;28;20035;-76
2021/01/31 06:32:36;;;;;;;13.15;6.70;;;-4.10;99.90;;;;;;4959996;28;20027;-76
2021/01/31 06:35:07;;;;;;;10.98;6.20;;;-4.20;99.90;;;;;;4969030;28;20049;-76
2021/01/31 06:37:58;;;;;;;14.23;6.30;;;-4.20;99.90;;;;;;4958751;28;20063;-75
2021/01/31 06:40:33;;;;;;;11.57;6.20;;;-4.20;99.90;;;;;;4968564;28;20031;-75
2021/01/31 06:43:10;;;;;;;12.93;6.63;;;-4.20;99.90;;;;;;4967727;28;20263;-76
2021/01/31 06:45:45;;;;;;;14.82;5.90;;;-4.20;99.90;;;;;;4971602;28;20027;-75
2021/01/31 06:48:36;;;;;;;12.35;6.40;;;-4.10;99.90;;;;;;4969900;28;20031;-76
2021/01/31 06:51:11;;;;;;;16.00;6.53;;;-4.10;99.90;;;;;;4964897;28;20074;-75
2021/01/31 06:54:14;;;;;;;15.13;6.43;;;-4.00;99.90;;;;;;4961241;28;20039;-76
2021/01/31 06:57:13;;;;;;;12.27;6.45;;;-3.90;99.90;;;;;;4970980;28;20069;-76
2021/01/31 06:59:52;;;;;;;16.25;6.32;;;-4.10;99.90;;;;;;4963686;28;20047;-75
2021/01/31 07:02:52;;;;;;;14.45;6.63;;;-4.00;99.90;;;;;;4971157;28;20043;-75
2021/01/31 07:05:53;;;;;;;17.23;7.32;;;-4.00;99.90;;;;;;4972037;28;20042;-75
2021/01/31 07:08:39;;;;;;;14.38;6.90;;;-4.10;99.90;;;;;;4969695;28;20038;-76
2021/01/31 07:11:13;;;;;;;13.90;6.32;;;-4.10;99.90;;;;;;4964572;28;20039;-76
2021/01/31 07:13:57;;;;;;;12.27;6.22;;;-4.00;99.90;;;;;;4969806;28;20032;-76
2021/01/31 07:16:47;;;;;;;12.43;5.85;;;-4.10;99.90;;;;;;4968780;28;20039;-75
2021/01/31 07:19:31;;;;;;;14.25;6.45;;;-4.10;99.90;;;;;;4969655;28;20034;-76
2021/01/31 07:22:11;;;;;;;12.43;6.30;;;-4.10;99.90;;;;;;4971418;28;20057;-75
2021/01/31 07:24:41;;;;;;;13.98;6.07;;;-4.10;99.90;;;;;;4969883;28;20043;-76
2021/01/31 07:27:22;;;;;;;14.30;5.72;;;-4.20;99.90;;;;;;4968992;28;20023;-75
2021/01/31 07:30:06;;;;;;;11.48;5.78;;;-4.10;99.90;;;;;;4968492;28;20150;-77
2021/01/31 07:32:59;;;;;;;14.38;6.57;;;-4.00;99.90;;;;;;4966305;28;20433;-76
2021/01/31 07:35:30;;;;;;;12.23;6.40;;;-3.90;99.90;;;;;;4978793;28;20077;-76
2021/01/31 07:38:13;;;;;;;14.88;6.70;;;-3.90;99.90;;;;;;4969370;28;20034;-75
2021/01/31 07:40:40;;;;;;;14.68;6.68;;;-4.00;99.90;;;;;;4971711;28;20038;-75
2021/01/31 07:43:06;;;;;;;16.27;6.95;;;-3.90;99.90;;;;;;4963216;28;20441;-76
2021/01/31 07:45:31;;;;;;;12.15;6.55;;;-3.70;99.90;;;;;;4961034;28;20042;-76
2021/01/31 07:48:45;;;;;;;12.80;6.72;;;-3.60;99.90;;;;;;4953417;28;20042;-76
2021/01/31 07:51:13;;;;;;;15.68;7.25;;;-3.40;99.90;;;;;;4956621;28;20162;-76
2021/01/31 07:53:41;;;;;;;12.73;6.13;;;-3.40;99.90;;;;;;4965529;28;20050;-76
2021/01/31 07:56:33;;;;;;;13.88;6.10;;;-3.20;99.90;;;;;;4969214;28;20116;-75
2021/01/31 07:59:19;;;;;;;11.10;5.65;;;-3.00;99.90;;;;;;4968066;28;20386;-76
2021/01/31 08:01:46;;;;;;;17.55;6.95;;;-2.90;99.90;;;;;;4970484;28;20058;-76
2021/01/31 08:04:15;;;;;;;14.95;6.82;;;-2.80;99.90;;;;;;4964986;28;20146;-76
2021/01/31 08:06:49;;;;;;;14.02;6.85;;;-2.70;99.90;;;;;;4968868;28;20125;-75
2021/01/31 08:09:40;;;;;;;14.32;6.85;;;-2.60;99.90;;;;;;4956010;28;20650;-76
2021/01/31 08:12:07;;;;;;;;;;;-2.50;99.90;;;;;;4963955;28;20101;-76
2021/01/31 08:15:07;;;;;;;15.68;6.40;;;-2.40;99.90;;;;;;4960438;28;19914;-76
2021/01/31 08:17:54;;;;;;;12.60;6.13;;;-2.30;99.90;;;;;;4968449;28;20444;-76
2021/01/31 08:20:31;;;;;;;12.73;6.00;;;-2.20;99.90;;;;;;4956549;28;20031;-75
2021/01/31 08:23:01;;;;;;;16.08;6.05;;;-2.20;99.90;;;;;;4962654;28;20039;-75
2021/01/31 08:25:53;;;;;;;17.95;6.75;;;-2.10;99.90;;;;;;4970790;28;20428;-76
2021/01/31 08:28:25;;;;;;;12.68;6.60;;;-2.00;99.90;;;;;;4975343;28;20118;-76
2021/01/31 08:31:10;;;;;;;10.23;5.32;;;-1.90;99.90;;;;;;4981914;28;20491;-76
2021/01/31 08:33:41;;;;;;;11.77;5.45;;;-1.90;99.90;;;;;;4970529;28;20039;-76
2021/01/31 08:36:11;;;;;;;10.75;5.65;;;-1.80;99.90;;;;;;4970031;28;20490;-76
2021/01/31 08:38:42;;;;;;;11.23;5.57;;;-1.90;99.90;;;;;;4965235;28;20035;-76
2021/01/31 08:41:11;;;;;;;7.95;4.40;;;-1.80;99.90;;;;;;4969219;28;20556;-75
2021/01/31 08:43:39;;;;;;;9.32;5.40;;;-1.80;99.90;;;;;;4967762;28;20037;-76
2021/01/31 08:46:20;;;;;;;10.65;5.13;;;-1.60;99.90;;;;;;4963218;28;20027;-75
2021/01/31 08:48:56;;;;;;;10.48;5.35;;;-1.60;99.90;;;;;;4960653;28;20042;-75
2021/01/31 08:51:31;;;;;;;12.73;5.30;;;-1.60;99.90;;;;;;4960085;28;20035;-75
2021/01/31 08:54:05;;;;;;;11.90;5.57;;;-1.50;99.90;;;;;;4967491;28;20078;-76
2021/01/31 08:57:08;;;;;;;12.32;5.35;;;-1.40;99.90;;;;;;4961622;28;20023;-76
2021/01/31 08:59:36;;;;;;;11.82;5.55;;;-1.30;99.90;;;;;;4957911;28;20058;-75
2021/01/31 09:02:14;;;;;;;11.13;5.05;;;-1.10;99.90;;;;;;4960797;28;20058;-76
2021/01/31 09:04:50;;;;;;;12.13;5.60;;;-1.10;99.90;;;;;;4966948;28;20022;-77
2021/01/31 09:07:27;;;;;;;12.02;5.72;;;-1.00;99.90;;;;;;4956911;28;20106;-76
2021/01/31 09:10:04;;;;;;;11.02;5.18;;;-1.00;99.90;;;;;;4951401;28;20031;-75
2021/01/31 09:12:29;;;;;;;10.70;5.57;;;-1.00;99.90;;;;;;4961070;28;20085;-75
2021/01/31 09:15:15;;;;;;;12.18;5.53;;;-1.00;99.90;;;;;;4963388;28;20058;-75
2021/01/31 09:17:41;;;;;;;11.20;5.55;;;-0.90;99.90;;;;;;4960183;28;20193;-78
2021/01/31 09:20:20;;;;;;;19.02;7.75;;;-0.80;99.90;;;;;;4961646;28;20456;-75
2021/01/31 09:22:50;;;;;;;11.13;5.85;;;-0.70;99.90;;;;;;4962868;28;20046;-77
2021/01/31 09:25:19;;;;;;;15.35;6.65;;;-0.70;99.90;;;;;;4965591;28;20135;-76
2021/01/31 09:28:01;;;;;;;15.88;6.53;;;-0.60;99.90;;;;;;4956893;28;20034;-75
2021/01/31 09:30:28;;;;;;;11.25;5.95;;;-0.50;99.90;;;;;;4963524;28;20054;-76
2021/01/31 09:33:03;;;;;;;11.27;5.65;;;-0.40;99.90;;;;;;4962789;28;20026;-76
2021/01/31 09:35:33;;;;;;;14.70;6.50;;;-0.40;99.90;;;;;;4970489;28;20027;-79
2021/01/31 09:38:22;;;;;;;13.77;6.07;;;-0.40;99.90;;;;;;4969509;28;20485;-76
2021/01/31 09:40:49;;;;;;;10.45;5.25;;;-0.20;99.90;;;;;;4967208;28;20441;-75
2021/01/31 09:43:24;;;;;;;9.98;5.53;;;-0.10;99.90;;;;;;4967085;28;20070;-77
2021/01/31 09:45:53;;;;;;;10.93;5.53;;;0.10;99.90;;;;;;4966535;28;20022;-77
2021/01/31 09:48:22;;;;;;;11.70;6.32;;;0.20;99.90;;;;;;4968455;28;20022;-76
2021/01/31 09:50:53;;;;;;;12.32;6.00;;;0.40;99.90;;;;;;4964491;28;20031;-76
2021/01/31 09:53:37;;;;;;;10.23;5.78;;;0.50;99.90;;;;;;4968893;28;20501;-76
2021/01/31 09:56:24;;;;;;;9.02;5.15;;;0.70;99.90;;;;;;4964905;28;20046;-80
2021/01/31 09:58:51;;;;;;;12.20;6.00;;;0.80;99.90;;;;;;4953289;28;20410;-81
2021/01/31 10:01:29;;;;;;;9.80;5.40;;;0.80;99.90;;;;;;4960373;28;20451;-78
2021/01/31 10:03:56;;;;;;;12.25;5.78;;;0.80;99.80;;;;;;4969057;28;20054;-79
2021/01/31 10:06:22;;;;;;;12.02;5.35;;;0.90;99.90;;;;;;4962152;28;20478;-77
2021/01/31 10:08:49;;;;;;;10.55;5.88;;;0.90;98.70;;;;;;4968264;28;20466;-78
2021/01/31 10:11:38;;;;;;;11.02;5.57;;;0.90;98.30;;;;;;4960755;28;20130;-78
2021/01/31 10:14:09;;;;;;;12.60;5.50;;;0.90;98.20;;;;;;4950604;28;20073;-78
2021/01/31 10:16:37;;;;;;;8.60;5.15;;;1.00;98.10;;;;;;4976018;28;20058;-79
2021/01/31 10:19:14;;;;;;;9.68;5.35;;;1.20;98.00;;;;;;4965223;28;20431;-80
2021/01/31 10:21:46;;;;;;;10.90;4.82;;;1.20;96.80;;;;;;4961768;28;20039;-79
2021/01/31 10:24:23;;;;;;;10.27;5.60;;;1.00;95.60;;;;;;4973738;28;20202;-80
2021/01/31 10:26:49;;;;;;;10.40;5.03;;;1.10;96.00;;;;;;4961226;28;20019;-76
2021/01/31 10:29:30;;;;;;;9.25;5.30;;;1.30;96.70;;;;;;4970159;28;20014;-77
2021/01/31 10:32:15;;;;;;;12.10;5.68;;;1.40;96.40;;;;;;4972051;28;20091;-78
2021/01/31 10:34:41;;;;;;;9.10;5.28;;;1.60;95.80;;;;;;4969231;28;20031;-77
2021/01/31 10:37:18;;;;;;;10.40;5.78;;;1.50;95.00;;;;;;4960663;28;20517;-77
2021/01/31 10:39:46;;;;;;;9.75;5.07;;;1.60;94.80;;;;;;4970064;28;20035;-77
2021/01/31 10:42:12;;;;;;;8.73;5.38;;;1.80;94.90;;;;;;4967514;28;20070;-77
2021/01/31 10:44:38;;;;;;;10.75;5.70;;;1.80;93.90;;;;;;4972493;28;20058;-77
2021/01/31 10:47:03;;;;;;;11.93;5.47;;;1.80;93.60;;;;;;4958016;28;20057;-77
2021/01/31 10:49:29;;;;;;;10.13;4.97;;;1.90;93.80;;;;;;4957322;28;20110;-77
2021/01/31 10:51:55;;;;;;;10.50;5.47;;;1.70;93.90;;;;;;4969349;28;20696;-77
2021/01/31 10:54:22;;;;;;;9.93;5.43;;;1.80;93.60;;;;;;4967554;28;20026;-77
2021/01/31 10:56:48;;;;;;;10.48;5.60;;;2.00;93.10;;;;;;4972160;28;20038;-77
2021/01/31 10:59:13;;;;;;;11.80;5.75;;;2.30;93.00;;;;;;4966790;28;20109;-76
2021/01/31 11:01:46;;;;;;;10.50;5.13;;;2.40;91.40;;;;;;4967261;28;20034;-77
2021/01/31 11:04:13;;;;;;;8.85;5.00;;;2.60;90.90;;;;;;4960595;28;20027;-76
2021/01/31 11:06:38;;;;;;;9.32;4.95;;;2.90;88.90;;;;;;4968136;28;20451;-77
2021/01/31 11:09:04;;;;;;;9.73;4.90;;;3.10;87.10;;;;;;4971297;28;20050;-74
2021/01/31 11:11:30;;;;;;;8.73;5.28;;;3.30;85.80;;;;;;4970840;28;20034;-74
2021/01/31 11:13:55;;;;;;;9.43;4.65;;;3.20;84.50;;;;;;4972187;28;20038;-74
2021/01/31 11:16:21;;;;;;;8.57;5.07;;;3.30;84.50;;;;;;4970511;28;20038;-74
2021/01/31 11:18:46;;;;;;;10.38;5.25;;;3.40;81.70;;;;;;4971632;28;20478;-74
2021/01/31 11:21:22;;;;;;;10.27;4.90;;;3.70;81.20;;;;;;4961201;28;20084;-74
2021/01/31 11:23:47;;;;;;;11.40;5.53;;;4.20;79.80;;;;;;4958513;28;20054;-74
2021/01/31 11:26:13;;;;;;;8.70;4.95;;;4.50;77.70;;;;;;4971134;28;20258;-74
2021/01/31 11:28:38;;;;;;;9.02;5.35;;;4.40;75.00;;;;;;4969601;28;20027;-75
2021/01/31 11:31:04;;;;;;;7.03;4.28;;;4.30;75.60;;;;;;4962930;28;20026;-75
2021/01/31 11:33:29;;;;;;;9.85;5.40;;;4.40;75.70;;;;;;4962269;28;20796;-75
2021/01/31 11:35:55;;;;;;;7.50;4.60;;;4.80;74.20;;;;;;4975892;28;20233;-74
2021/01/31 11:38:20;;;;;;;7.38;4.72;;;5.00;73.80;;;;;;4971504;28;20029;-75
2021/01/31 11:40:46;;;;;;;8.10;5.03;;;5.00;71.40;;;;;;4969433;28;20598;-75
2021/01/31 11:43:12;;;;;;;10.20;5.18;;;5.20;71.30;;;;;;4971286;28;20090;-75
2021/01/31 11:45:37;;;;;;;6.30;4.32;;;5.10;69.10;;;;;;4964157;28;20443;-75
2021/01/31 11:48:03;;;;;;;7.63;4.13;;;5.30;68.70;;;;;;4961888;28;20074;-74
2021/01/31 11:50:28;;;;;;;9.00;5.00;;;5.40;68.00;;;;;;4962914;28;20050;-74
2021/01/31 11:52:54;;;;;;;8.57;4.78;;;5.90;67.20;;;;;;4971595;28;20489;-76
2021/01/31 11:55:19;;;;;;;7.07;4.57;;;6.00;66.70;;;;;;4958394;28;20396;-75
2021/01/31 11:57:45;;;;;;;8.10;4.72;;;6.10;65.00;;;;;;4979370;28;20034;-74
2021/01/31 12:00:13;;;;;;;7.10;4.80;;;6.00;64.30;;;;;;4968771;28;20391;-75
2021/01/31 12:02:39;;;;;;;7.65;4.70;;;6.10;64.20;;;;;;4961532;28;20027;-74
2021/01/31 12:05:08;;;;;;;8.57;4.78;;;6.30;64.20;;;;;;4963726;28;20500;-73
2021/01/31 12:07:33;;;;;;;7.97;5.05;;;6.30;63.20;;;;;;4968766;28;20035;-74
2021/01/31 12:10:00;;;;;;;9.18;4.85;;;6.20;63.60;;;;;;4966453;28;20070;-75
2021/01/31 12:12:26;;;;;;;7.97;5.00;;;6.20;63.70;;;;;;4964874;28;20035;-75
2021/01/31 12:14:51;;;;;;;7.97;4.95;;;6.60;63.70;;;;;;4958950;28;20050;-74
2021/01/31 12:17:16;;;;;;;7.57;4.93;;;7.10;61.00;;;;;;4961155;28;20578;-74
2021/01/31 12:19:42;;;;;;;10.90;5.40;;;7.10;60.20;;;;;;4956278;28;20063;-75
2021/01/31 12:22:07;;;;;;;8.25;4.80;;;6.90;61.00;;;;;;4962533;28;20034;-75
2021/01/31 12:24:33;;;;;;;8.57;5.40;;;7.00;60.40;;;;;;4955924;28;20051;-73
2021/01/31 12:26:58;;;;;;;7.32;4.93;;;7.20;60.10;;;;;;4958543;28;20027;-74
2021/01/31 12:29:24;;;;;;;10.55;6.03;;;7.50;59.40;;;;;;4956140;28;20470;-74
2021/01/31 12:31:49;;;;;;;8.43;5.43;;;7.60;59.00;;;;;;4959884;28;20031;-73
2021/01/31 12:34:15;;;;;;;8.48;4.88;;;7.80;59.00;;;;;;4965380;28;20120;-74
2021/01/31 12:36:42;;;;;;;8.30;5.43;;;7.60;57.20;;;;;;4966392;28;20046;-73
2021/01/31 12:39:08;;;;;;;7.70;5.18;;;7.80;58.10;;;;;;4966004;28;20035;-75
2021/01/31 12:41:35;;;;;;;10.20;5.72;;;7.60;58.00;;;;;;4966088;28;20045;-76
2021/01/31 12:44:00;;;;;;;7.63;4.90;;;7.90;58.20;;;;;;4965331;28;20027;-78
2021/01/31 12:46:27;;;;;;;9.40;5.10;;;7.90;58.30;;;;;;4962376;28;20081;-77
2021/01/31 12:48:55;;;;;;;8.60;4.88;;;7.90;58.00;;;;;;4966468;28;20117;-76
2021/01/31 12:51:21;;;;;;;7.97;5.28;;;8.10;57.30;;;;;;4959747;28;20031;-76
2021/01/31 12:53:47;;;;;;;9.48;5.40;;;8.10;56.50;;;;;;4969293;28;20478;-76
2021/01/31 12:56:12;;;;;;;7.93;5.22;;;8.20;55.40;;;;;;4967118;28;20536;-76
2021/01/31 12:58:39;;;;;;;9.20;5.43;;;8.30;55.40;;;;;;4970242;28;20070;-76
2021/01/31 13:01:05;;;;;;;7.97;5.10;;;7.90;55.70;;;;;;4960220;28;20156;-76
2021/01/31 13:03:30;;;;;;;7.85;5.15;;;8.00;56.30;;;;;;4963650;28;20114;-76
2021/01/31 13:05:55;;;;;;;7.43;4.88;;;7.90;56.30;;;;;;4959958;28;20086;-75